Capitol Logistics 794


SAEZ
Aeropuerto Internacional Ezeiza/Ministro Pistarini
Buenos Aires, AR
KMIA
Miami International Airport
Miami, US

Route Details

Aircraft Information
Primary: Boeing 747-400BCF
Backup: Boeing 777-200LRF
Route Data
Distance: 3849nm
Sched. Duration: 9h 15m
Avg. Duration: 8h 46m (-69m)
Times Flown: 1
Recm'd Route: UCA UA301 URSUS FLIPR6
Planned Altitude: 32,000ft
Origin Wx: SAEZ 272200Z 00000KT CAVOK 27/13 Q1011 NOSIG
Dest. Wx: KMIA 272153Z 35007KT 10SM FEW030 FEW042 SCT160 19/04 A3012 RMK AO2 SLP199 T01940044
Notes:

Financial History
Total Freight: 123,630lbs
Average Load: 123,630lbs/flt
Fuel Used: 170,506lbs
Avg. Fuel Used: 170,506lbs/flt
Fuel Expense: $136,405
Avg. Fuel Expense: $136,405
Avg. Fuel Cost: $0.80/lbs
Total Gross Income: $332,565
Pilot Pay: $149
Total Expenses: $35,969
Total Revenue: $158,095
Average Revenue: $332,564.69